createdAt,value
2023-02-14T00:00:29.629Z,102282.47
2023-02-14T00:02:57.162Z,102398.84
2023-02-14T00:05:23.845Z,102406.69
2023-02-14T00:07:50.537Z,102309.91
2023-02-14T00:10:17.837Z,102214.00
2023-02-14T00:12:44.479Z,102242.88
2023-02-14T00:15:23.661Z,102328.38
2023-02-14T00:17:54.937Z,102411.16
2023-02-14T00:20:22.665Z,102308.16
2023-02-14T00:22:49.692Z,102355.72
2023-02-14T00:25:16.601Z,102393.53
2023-02-14T00:27:43.181Z,102310.00
2023-02-14T00:30:12.661Z,102258.03
2023-02-14T00:32:40.455Z,102368.97
2023-02-14T00:35:08.909Z,102398.13
2023-02-14T00:37:35.997Z,102370.78
2023-02-14T00:40:02.930Z,102366.34
2023-02-14T00:42:29.452Z,102359.28
2023-02-14T00:44:56.231Z,102395.31
2023-02-14T00:47:22.850Z,102349.50
2023-02-14T00:49:49.470Z,102278.31
2023-02-14T00:52:16.110Z,102247.47
2023-02-14T00:54:42.696Z,102370.78
2023-02-14T00:57:09.375Z,102411.09
2023-02-14T00:59:35.994Z,102276.56
2023-02-14T01:02:02.562Z,102349.47
2023-02-14T01:04:29.200Z,102361.75
2023-02-14T01:06:55.725Z,102295.84
2023-02-14T01:09:22.714Z,102306.38
2023-02-14T01:11:49.260Z,102314.38
2023-02-14T01:14:15.791Z,102303.66
2023-02-14T01:16:42.530Z,102345.03
2023-02-14T01:19:09.381Z,102385.34
2023-02-14T01:21:36.042Z,102152.19
2023-02-14T01:24:06.314Z,102408.25
2023-02-14T01:26:34.278Z,102100.28
2023-02-14T01:29:01.529Z,102336.09
2023-02-14T01:31:30.216Z,102287.66
2023-02-14T01:33:58.168Z,102296.34
2023-02-14T01:36:27.730Z,102399.22
2023-02-14T01:38:59.537Z,102342.91
2023-02-14T01:41:31.545Z,102398.41
2023-02-14T01:44:04.655Z,102405.34
2023-02-14T01:46:33.800Z,102406.19
2023-02-14T01:49:14.720Z,102391.13
2023-02-14T01:51:47.283Z,102329.50
2023-02-14T01:54:14.046Z,102414.03
2023-02-14T01:56:45.910Z,102404.38
2023-02-14T01:59:18.604Z,102355.28
2023-02-14T02:01:48.214Z,102355.31
2023-02-14T02:04:22.188Z,102341.25
2023-02-14T02:06:56.709Z,102410.78
2023-02-14T02:09:23.188Z,102403.81
2023-02-14T02:11:49.911Z,102277.00
2023-02-14T02:14:19.605Z,102400.34
2023-02-14T02:17:08.644Z,102388.94
2023-02-14T02:20:21.110Z,102374.88
2023-02-14T02:23:08.507Z,102398.44
2023-02-14T02:25:50.136Z,102387.72
2023-02-14T02:28:53.044Z,102387.38
2023-02-14T02:32:13.344Z,102376.78
2023-02-14T02:35:05.749Z,102314.91
2023-02-14T02:37:54.051Z,102380.97
2023-02-14T02:40:44.891Z,102390.47
2023-02-14T02:43:17.392Z,102390.34
2023-02-14T02:46:11.787Z,102388.50
2023-02-14T02:48:45.284Z,102386.75
2023-02-14T02:51:39.675Z,102375.38
2023-02-14T02:54:31.579Z,102384.16
2023-02-14T02:57:01.963Z,102381.53
2023-02-14T02:59:32.538Z,102339.06
2023-02-14T03:02:12.862Z,102300.34
2023-02-14T03:04:56.297Z,102260.72
2023-02-14T03:07:34.852Z,102333.69
2023-02-14T03:10:15.433Z,102394.38
2023-02-14T03:13:09.144Z,102293.16
2023-02-14T03:16:10.261Z,102388.19
2023-02-14T03:18:44.121Z,102390.78
2023-02-14T03:21:27.765Z,102399.50
2023-02-14T03:24:01.313Z,102393.44
2023-02-14T03:26:37.814Z,102375.75
2023-02-14T03:29:18.852Z,102297.56
2023-02-14T03:32:03.797Z,102391.03
2023-02-14T03:35:02.810Z,102315.34
2023-02-14T03:37:47.157Z,102384.97
2023-02-14T03:40:16.031Z,102389.34
2023-02-14T03:43:04.582Z,102370.78
2023-02-14T03:45:39.571Z,102292.34
2023-02-14T03:48:09.992Z,102356.59
2023-02-14T03:50:41.212Z,102339.03
2023-02-14T03:53:10.040Z,102399.75
2023-02-14T03:55:44.500Z,102394.50
2023-02-14T03:58:20.812Z,102208.56
2023-02-14T04:00:50.408Z,102339.81
2023-02-14T04:03:19.737Z,102368.97
2023-02-14T04:05:52.470Z,102398.03
2023-02-14T04:08:24.551Z,102409.25
2023-02-14T04:10:52.814Z,102377.63
2023-02-14T04:13:19.779Z,102336.13
2023-02-14T04:15:46.344Z,102366.13
2023-02-14T04:18:31.580Z,102279.94
2023-02-14T04:20:58.560Z,102415.28
2023-02-14T04:23:25.279Z,102403.88
2023-02-14T04:25:51.990Z,102240.75
2023-02-14T04:28:18.530Z,102286.44
2023-02-14T04:30:45.036Z,102404.53
2023-02-14T04:33:11.584Z,102391.34
2023-02-14T04:35:38.129Z,102387.75
2023-02-14T04:38:05.655Z,102353.19
2023-02-14T04:40:32.505Z,102416.50
2023-02-14T04:43:00.555Z,102389.25
2023-02-14T04:45:29.617Z,102278.22
2023-02-14T04:47:56.298Z,102276.25
2023-02-14T04:50:23.565Z,102163.28
2023-02-14T04:52:50.130Z,102416.28
2023-02-14T04:55:19.888Z,102309.47
2023-02-14T04:57:46.550Z,102388.00
2023-02-14T05:00:13.730Z,102283.81
2023-02-14T05:02:40.264Z,102408.13
2023-02-14T05:05:07.291Z,102409.91
2023-02-14T05:07:33.763Z,102231.00
2023-02-14T05:10:00.335Z,102288.84
2023-02-14T05:12:27.292Z,102339.97
2023-02-14T05:14:53.878Z,102388.13
2023-02-14T05:17:20.463Z,102270.81
2023-02-14T05:19:47.004Z,102372.13
2023-02-14T05:22:13.512Z,102230.09
2023-02-14T05:24:40.064Z,102362.25
2023-02-14T05:27:07.670Z,102415.25
2023-02-14T05:29:34.225Z,102238.81
2023-02-14T05:32:00.778Z,102341.94
2023-02-14T05:34:27.766Z,102405.50
2023-02-14T05:36:55.037Z,102373.03
2023-02-14T05:39:21.725Z,102299.84
2023-02-14T05:41:48.386Z,102330.94
2023-02-14T05:44:14.911Z,102307.16
2023-02-14T05:46:41.493Z,102419.13
2023-02-14T05:49:07.980Z,102423.25
2023-02-14T05:51:34.602Z,102296.19
2023-02-14T05:54:01.511Z,102373.75
2023-02-14T05:56:28.147Z,102426.06
2023-02-14T05:58:54.856Z,102406.56
2023-02-14T06:01:21.523Z,102422.63
2023-02-14T06:03:48.023Z,102329.34
2023-02-14T06:06:14.555Z,102248.56
2023-02-14T06:08:41.230Z,102334.81
2023-02-14T06:11:07.778Z,102413.97
2023-02-14T06:13:34.304Z,102429.09
2023-02-14T06:16:03.519Z,102356.78
2023-02-14T06:18:30.076Z,102334.78
2023-02-14T06:20:57.666Z,102404.44
2023-02-14T06:23:24.493Z,102408.84
2023-02-14T06:25:51.055Z,102310.47
2023-02-14T06:28:17.607Z,102357.88
2023-02-14T06:30:46.662Z,102401.97
2023-02-14T06:33:13.330Z,102408.22
2023-02-14T06:35:39.883Z,102351.94
2023-02-14T06:38:06.379Z,102405.78
2023-02-14T06:40:33.048Z,102398.75
2023-02-14T06:42:59.774Z,102398.66
2023-02-14T06:45:26.328Z,102370.22
2023-02-14T06:47:52.929Z,102272.41
2023-02-14T06:50:19.589Z,102425.03
2023-02-14T06:52:46.125Z,102355.34
2023-02-14T06:55:13.925Z,102418.03
2023-02-14T06:57:40.853Z,102315.16
2023-02-14T07:00:08.224Z,102422.72
2023-02-14T07:02:34.801Z,102425.25
2023-02-14T07:05:01.683Z,102418.94
2023-02-14T07:07:28.235Z,102367.75
2023-02-14T07:09:54.805Z,102315.81
2023-02-14T07:12:21.353Z,102219.28
2023-02-14T07:14:47.875Z,102256.56
2023-02-14T07:17:14.394Z,102320.09
2023-02-14T07:19:40.982Z,102255.03
2023-02-14T07:22:07.590Z,102365.06
2023-02-14T07:24:34.152Z,102351.03
2023-02-14T07:27:00.640Z,102391.44
2023-02-14T07:29:27.201Z,102389.59
2023-02-14T07:31:54.426Z,102365.75
2023-02-14T07:34:21.146Z,102427.47
2023-02-14T07:36:47.610Z,102405.53
2023-02-14T07:39:14.206Z,102343.53
2023-02-14T07:41:40.744Z,102352.28
2023-02-14T07:44:07.365Z,102392.00
2023-02-14T07:46:33.957Z,102267.97
2023-02-14T07:49:00.586Z,102289.03
2023-02-14T07:51:27.164Z,102401.88
2023-02-14T07:53:53.707Z,102347.28
2023-02-14T07:56:20.264Z,102429.13
2023-02-14T07:58:46.807Z,102424.81
2023-02-14T08:01:13.423Z,102408.16
2023-02-14T08:03:39.949Z,102355.28
2023-02-14T08:06:06.464Z,102432.97
2023-02-14T08:08:33.141Z,102314.91
2023-02-14T08:11:00.074Z,102426.84
2023-02-14T08:13:26.782Z,102402.06
2023-02-14T08:16:06.155Z,102434.78
2023-02-14T08:18:38.546Z,102430.31
2023-02-14T08:21:07.128Z,102435.44
2023-02-14T08:23:34.446Z,102382.72
2023-02-14T08:26:01.210Z,102428.72
2023-02-14T08:28:28.084Z,102338.00
2023-02-14T08:30:55.322Z,102396.13
2023-02-14T08:33:22.424Z,102429.63
2023-02-14T08:35:50.860Z,102304.53
2023-02-14T08:38:17.370Z,102423.41
2023-02-14T08:40:44.492Z,102426.28
2023-02-14T08:43:11.536Z,102382.97
2023-02-14T08:45:38.909Z,102410.97
2023-02-14T08:48:09.653Z,102320.84
2023-02-14T08:50:37.121Z,102429.19
2023-02-14T08:53:08.961Z,102425.69
2023-02-14T08:55:36.016Z,102375.81
2023-02-14T08:58:03.687Z,102427.81
2023-02-14T09:00:30.866Z,102419.25
2023-02-14T09:02:57.712Z,102356.06
2023-02-14T09:05:24.601Z,102328.81
2023-02-14T09:07:51.366Z,102394.09
2023-02-14T09:10:21.336Z,102290.06
2023-02-14T09:12:48.401Z,102248.94
2023-02-14T09:15:15.054Z,102265.38
2023-02-14T09:17:41.645Z,102414.56
2023-02-14T09:20:10.868Z,102354.72
2023-02-14T09:22:37.676Z,102381.16
2023-02-14T09:25:04.765Z,102282.72
2023-02-14T09:27:32.421Z,102418.56
2023-02-14T09:29:59.499Z,102397.56
2023-02-14T09:32:29.361Z,102408.25
2023-02-14T09:34:56.146Z,102281.28
2023-02-14T09:37:42.041Z,102330.97
2023-02-14T09:40:09.178Z,102417.66
2023-02-14T09:42:41.651Z,102414.66
2023-02-14T09:45:19.591Z,102403.84
2023-02-14T09:47:56.287Z,102419.09
2023-02-14T09:50:34.682Z,102419.59
2023-02-14T09:53:25.898Z,102348.78
2023-02-14T09:55:56.070Z,102396.59
2023-02-14T09:58:39.700Z,102230.38
2023-02-14T10:01:12.072Z,102353.63
2023-02-14T10:03:47.668Z,102390.38
2023-02-14T10:07:09.548Z,102419.25
2023-02-14T10:10:13.892Z,102417.00
2023-02-14T10:12:46.108Z,102342.75
2023-02-14T10:15:21.957Z,102356.50
2023-02-14T10:17:55.126Z,102374.06
2023-02-14T10:20:41.587Z,102333.69
2023-02-14T10:23:38.250Z,102426.28
2023-02-14T10:26:09.644Z,102362.38
2023-02-14T10:28:42.425Z,102404.78
2023-02-14T10:31:23.095Z,102414.78
2023-02-14T10:34:09.730Z,102412.31
2023-02-14T10:36:45.216Z,102414.31
2023-02-14T10:40:01.058Z,102406.44
2023-02-14T10:42:49.421Z,102407.69
2023-02-14T10:45:39.200Z,102399.09
2023-02-14T10:48:13.462Z,102378.38
2023-02-14T10:51:13.854Z,102390.97
2023-02-14T10:53:53.249Z,102388.41
2023-02-14T10:57:09.039Z,102358.44
2023-02-14T10:59:51.220Z,102276.69
2023-02-14T11:02:23.339Z,102339.16
2023-02-14T11:04:50.017Z,102341.00
2023-02-14T11:07:18.862Z,102376.38
2023-02-14T11:09:45.633Z,102362.28
2023-02-14T11:12:12.521Z,102225.97
2023-02-14T11:14:40.290Z,102369.38
2023-02-14T11:17:30.399Z,102367.69
2023-02-14T11:19:58.139Z,102315.66
2023-02-14T11:22:31.763Z,102219.34
2023-02-14T11:25:22.313Z,102310.50
2023-02-14T11:27:52.377Z,102350.94
2023-02-14T11:30:26.716Z,102317.75
2023-02-14T11:32:56.141Z,102275.72
2023-02-14T11:35:27.661Z,102221.41
2023-02-14T11:37:56.215Z,102342.03
2023-02-14T11:40:38.053Z,102347.34
2023-02-14T11:43:14.434Z,102273.56
2023-02-14T11:45:46.932Z,102286.00
2023-02-14T11:48:19.733Z,102333.53
2023-02-14T11:51:06.646Z,102330.91
2023-02-14T11:53:49.326Z,102251.06
2023-02-14T11:56:17.674Z,102294.31
2023-02-14T11:59:00.036Z,102325.19
2023-02-14T12:01:38.676Z,102295.28
2023-02-14T12:04:12.242Z,102259.16
2023-02-14T12:06:38.866Z,102264.44
2023-02-14T12:09:23.373Z,102319.72
2023-02-14T12:12:06.639Z,102237.97
2023-02-14T12:14:36.500Z,102233.59
2023-02-14T12:17:23.766Z,102303.91
2023-02-14T12:20:09.246Z,102287.94
2023-02-14T12:22:43.425Z,102301.06
2023-02-14T12:25:27.257Z,102245.66
2023-02-14T12:28:09.761Z,102148.19
2023-02-14T12:30:36.365Z,102017.38
2023-02-14T12:33:05.906Z,102186.09
2023-02-14T12:35:53.617Z,102286.38
2023-02-14T12:38:50.094Z,102190.63
2023-02-14T12:41:27.121Z,102284.72
2023-02-14T12:43:56.582Z,102217.22
2023-02-14T12:46:51.469Z,102272.75
2023-02-14T12:49:26.701Z,102273.72
2023-02-14T12:52:10.044Z,102247.44
2023-02-14T12:54:54.335Z,102265.00
2023-02-14T12:57:41.194Z,102260.72
2023-02-14T13:00:12.742Z,102254.69
2023-02-14T13:03:14.287Z,102210.00
2023-02-14T13:06:18.423Z,102254.88
2023-02-14T13:09:19.019Z,102242.69
2023-02-14T13:12:08.346Z,102175.09
2023-02-14T13:14:56.303Z,102235.72
2023-02-14T13:17:38.024Z,102232.22
2023-02-14T13:20:39.825Z,102232.06
2023-02-14T13:23:14.349Z,102225.03
2023-02-14T13:25:50.001Z,102165.41
2023-02-14T13:28:18.665Z,102216.38
2023-02-14T13:30:45.326Z,102219.91
2023-02-14T13:33:27.203Z,102149.69
2023-02-14T13:36:07.858Z,102190.03
2023-02-14T13:38:43.362Z,102169.00
2023-02-14T13:41:11.222Z,102155.84
2023-02-14T13:43:58.143Z,102210.25
2023-02-14T13:46:34.036Z,102205.00
2023-02-14T13:49:15.377Z,102209.34
2023-02-14T13:51:51.229Z,102168.09
2023-02-14T13:54:44.992Z,102111.88
2023-02-14T13:57:36.481Z,102202.38
2023-02-14T14:00:18.970Z,102197.19
2023-02-14T14:02:53.230Z,102191.06
2023-02-14T14:05:47.634Z,102204.25
2023-02-14T14:08:36.531Z,102120.00
2023-02-14T14:11:22.960Z,102195.34
2023-02-14T14:13:52.268Z,102188.22
2023-02-14T14:16:27.959Z,102115.34
2023-02-14T14:19:00.663Z,102191.66
2023-02-14T14:22:01.767Z,102187.25
2023-02-14T14:24:30.976Z,102187.34
2023-02-14T14:26:58.978Z,102189.13
2023-02-14T14:29:52.352Z,102191.75
2023-02-14T14:32:25.462Z,102176.84
2023-02-14T14:35:03.965Z,102182.03
2023-02-14T14:37:37.234Z,102108.31
2023-02-14T14:40:06.740Z,102167.91
2023-02-14T14:42:39.123Z,102160.03
2023-02-14T14:45:27.630Z,102131.97
2023-02-14T14:48:00.468Z,102167.03
2023-02-14T14:50:30.470Z,102156.50
2023-02-14T14:53:07.452Z,102158.28
2023-02-14T14:55:37.398Z,102142.50
2023-02-14T14:58:08.322Z,102155.72
2023-02-14T15:00:38.329Z,101935.66
2023-02-14T15:03:15.522Z,102018.03
2023-02-14T15:05:51.092Z,102142.59
2023-02-14T15:08:21.832Z,102130.31
2023-02-14T15:11:05.380Z,102020.63
2023-02-14T15:13:50.114Z,101867.25
2023-02-14T15:16:40.799Z,102129.44
2023-02-14T15:19:12.230Z,102124.09
2023-02-14T15:21:44.231Z,102105.72
2023-02-14T15:24:18.502Z,102051.31
2023-02-14T15:26:47.847Z,102121.50
2023-02-14T15:29:26.510Z,102076.72
2023-02-14T15:31:54.290Z,102096.00
2023-02-14T15:34:25.041Z,102058.25
2023-02-14T15:36:56.633Z,102129.25
2023-02-14T15:39:34.592Z,101975.72
2023-02-14T15:42:01.626Z,102080.03
2023-02-14T15:44:28.448Z,102030.91
2023-02-14T15:47:03.307Z,102087.94
2023-02-14T15:49:36.778Z,102116.91
2023-02-14T15:52:05.710Z,102101.97
2023-02-14T15:54:47.761Z,102071.22
2023-02-14T15:57:28.302Z,102093.13
2023-02-14T15:59:55.307Z,102068.53
2023-02-14T16:02:37.917Z,102115.88
2023-02-14T16:05:26.176Z,102115.84
2023-02-14T16:08:39.196Z,102079.84
2023-02-14T16:11:15.888Z,102113.22
2023-02-14T16:13:45.032Z,102114.03
2023-02-14T16:16:14.397Z,102040.22
2023-02-14T16:18:52.134Z,102122.66
2023-02-14T16:21:21.455Z,102071.72
2023-02-14T16:24:08.097Z,102116.41
2023-02-14T16:26:38.137Z,102077.66
2023-02-14T16:29:06.275Z,102081.97
2023-02-14T16:31:34.174Z,102124.03
2023-02-14T16:34:00.842Z,102081.72
2023-02-14T16:36:34.467Z,102139.56
2023-02-14T16:39:05.322Z,101976.25
2023-02-14T16:41:34.404Z,101985.81
2023-02-14T16:44:01.389Z,102082.34
2023-02-14T16:46:35.020Z,102067.44
2023-02-14T16:49:02.358Z,102019.13
2023-02-14T16:51:32.578Z,102127.94
2023-02-14T16:54:02.741Z,102118.31
2023-02-14T16:56:37.306Z,102125.25
2023-02-14T16:59:04.491Z,102125.19
2023-02-14T17:01:33.244Z,102068.88
2023-02-14T17:04:00.275Z,101932.06
2023-02-14T17:06:28.339Z,101983.09
2023-02-14T17:08:56.905Z,102027.75
2023-02-14T17:11:24.989Z,102127.97
2023-02-14T17:13:52.966Z,102021.72
2023-02-14T17:16:19.559Z,102086.50
2023-02-14T17:18:49.611Z,101987.22
2023-02-14T17:21:20.052Z,102097.81
2023-02-14T17:23:46.782Z,101923.09
2023-02-14T17:26:14.295Z,101937.84
2023-02-14T17:28:40.871Z,102039.63
2023-02-14T17:31:08.153Z,101919.16
2023-02-14T17:33:37.370Z,102097.53
2023-02-14T17:36:11.508Z,101953.31
2023-02-14T17:38:39.253Z,102136.16
2023-02-14T17:41:13.368Z,102161.59
2023-02-14T17:43:40.170Z,102038.63
2023-02-14T17:46:06.873Z,102121.84
2023-02-14T17:48:33.852Z,102096.47
2023-02-14T17:51:05.333Z,102025.25
2023-02-14T17:53:33.249Z,102110.53
2023-02-14T17:56:18.057Z,102155.28
2023-02-14T17:58:47.680Z,102120.91
2023-02-14T18:01:15.809Z,102150.91
2023-02-14T18:03:43.208Z,102113.81
2023-02-14T18:06:11.458Z,102130.66
2023-02-14T18:08:40.821Z,102084.94
2023-02-14T18:11:11.440Z,102110.34
2023-02-14T18:13:40.407Z,102150.75
2023-02-14T18:16:09.597Z,102144.59
2023-02-14T18:18:36.821Z,101991.63
2023-02-14T18:21:04.949Z,102139.22
2023-02-14T18:23:32.950Z,102080.34
2023-02-14T18:26:04.338Z,102131.44
2023-02-14T18:28:32.253Z,102089.19
2023-02-14T18:31:06.666Z,102069.78
2023-02-14T18:33:33.980Z,101956.19
2023-02-14T18:36:05.778Z,102125.09
2023-02-14T18:38:32.417Z,102031.88
2023-02-14T18:41:06.746Z,102096.16
2023-02-14T18:43:33.797Z,102132.22
2023-02-14T18:46:05.337Z,102148.81
2023-02-14T18:48:32.568Z,102128.78
2023-02-14T18:51:08.730Z,102082.31
2023-02-14T18:53:36.502Z,102066.66
2023-02-14T18:56:05.164Z,102073.81
2023-02-14T18:58:31.933Z,102027.16
2023-02-14T19:00:59.490Z,102088.81
2023-02-14T19:03:26.173Z,102057.19
2023-02-14T19:05:53.550Z,102061.66
2023-02-14T19:08:20.110Z,102005.53
2023-02-14T19:10:46.625Z,102096.03
2023-02-14T19:13:13.113Z,101996.03
2023-02-14T19:15:39.675Z,102079.44
2023-02-14T19:18:06.221Z,102102.28
2023-02-14T19:20:32.760Z,102097.25
2023-02-14T19:22:59.377Z,102057.03
2023-02-14T19:25:26.530Z,102042.16
2023-02-14T19:27:53.083Z,102043.91
2023-02-14T19:30:19.787Z,102073.88
2023-02-14T19:32:46.434Z,102072.16
2023-02-14T19:35:12.965Z,101982.53
2023-02-14T19:37:39.503Z,102057.88
2023-02-14T19:40:07.170Z,102022.97
2023-02-14T19:42:33.756Z,102046.69
2023-02-14T19:45:00.438Z,102061.63
2023-02-14T19:47:39.880Z,102013.31
2023-02-14T19:50:12.414Z,102029.00
2023-02-14T19:52:39.610Z,102058.72
2023-02-14T19:55:07.457Z,101963.91
2023-02-14T19:57:34.026Z,102070.22
2023-02-14T20:00:00.736Z,102032.50
2023-02-14T20:02:27.307Z,102088.75
2023-02-14T20:04:58.804Z,102046.66
2023-02-14T20:07:25.464Z,102049.13
2023-02-14T20:09:51.983Z,101977.91
2023-02-14T20:12:18.526Z,102008.63
2023-02-14T20:14:51.209Z,102020.00
2023-02-14T20:17:18.389Z,102085.09
2023-02-14T20:19:45.270Z,102080.75
2023-02-14T20:22:11.813Z,102017.59
2023-02-14T20:24:38.421Z,102031.66
2023-02-14T20:27:05.244Z,101994.72
2023-02-14T20:29:32.353Z,102005.03
2023-02-14T20:32:00.101Z,102068.25
2023-02-14T20:34:29.760Z,102076.97
2023-02-14T20:36:56.439Z,102005.81
2023-02-14T20:39:28.602Z,102014.75
2023-02-14T20:41:55.330Z,101934.03
2023-02-14T20:44:22.868Z,102044.56
2023-02-14T20:46:51.766Z,101957.69
2023-02-14T20:49:20.212Z,102023.47
2023-02-14T20:51:49.650Z,101951.66
2023-02-14T20:54:20.442Z,102002.50
2023-02-14T20:56:47.634Z,102041.97
2023-02-14T20:59:14.770Z,102034.13
2023-02-14T21:01:41.446Z,101941.97
2023-02-14T21:04:08.260Z,102005.19
2023-02-14T21:06:35.667Z,102054.38
2023-02-14T21:09:03.262Z,102031.53
2023-02-14T21:11:29.956Z,101977.03
2023-02-14T21:13:59.731Z,101905.06
2023-02-14T21:16:28.703Z,102048.97
2023-02-14T21:18:59.071Z,102041.09
2023-02-14T21:21:32.247Z,102041.09
2023-02-14T21:24:01.942Z,101920.91
2023-02-14T21:26:28.994Z,101979.75
2023-02-14T21:28:56.985Z,102039.31
2023-02-14T21:31:25.840Z,101935.72
2023-02-14T21:33:55.292Z,102029.69
2023-02-14T21:36:23.638Z,101989.41
2023-02-14T21:38:50.673Z,102015.81
2023-02-14T21:41:19.927Z,102026.25
2023-02-14T21:43:47.870Z,101922.63
2023-02-14T21:46:17.447Z,101923.66
2023-02-14T21:49:03.166Z,102012.44
2023-02-14T21:51:31.151Z,101962.47
2023-02-14T21:54:01.683Z,102012.47
2023-02-14T21:56:28.360Z,101946.66
2023-02-14T21:58:55.812Z,101899.25
2023-02-14T22:01:31.595Z,102013.19
2023-02-14T22:03:59.395Z,101929.84
2023-02-14T22:06:27.754Z,101994.88
2023-02-14T22:08:56.593Z,101942.38
2023-02-14T22:11:25.414Z,101912.59
2023-02-14T22:13:52.149Z,101978.31
2023-02-14T22:16:20.653Z,101994.03
2023-02-14T22:18:47.924Z,101976.41
2023-02-14T22:21:17.834Z,101913.13
2023-02-14T22:23:45.085Z,101930.56
2023-02-14T22:26:17.679Z,101961.28
2023-02-14T22:28:53.820Z,102002.50
2023-02-14T22:31:20.939Z,102003.31
2023-02-14T22:33:49.522Z,101995.31
2023-02-14T22:36:16.706Z,101974.94
2023-02-14T22:38:43.693Z,101995.34
2023-02-14T22:41:16.049Z,101986.63
2023-02-14T22:43:43.481Z,101994.69
2023-02-14T22:46:17.137Z,101993.00
2023-02-14T22:48:44.326Z,101903.53
2023-02-14T22:51:14.538Z,101988.66
2023-02-14T22:53:41.132Z,101897.31
2023-02-14T22:56:22.050Z,101931.41
2023-02-14T22:58:48.723Z,101988.41
2023-02-14T23:01:17.833Z,101903.44
2023-02-14T23:03:45.679Z,101969.28
2023-02-14T23:06:13.344Z,101986.91
2023-02-14T23:08:41.353Z,101977.34
2023-02-14T23:11:10.291Z,101985.28
2023-02-14T23:13:56.830Z,101939.72
2023-02-14T23:16:43.412Z,101922.94
2023-02-14T23:19:36.721Z,101950.31
2023-02-14T23:22:06.740Z,101994.22
2023-02-14T23:24:33.297Z,101908.31
2023-02-14T23:26:59.994Z,101965.22
2023-02-14T23:29:26.585Z,101970.34
2023-02-14T23:31:53.202Z,101960.72
2023-02-14T23:34:20.068Z,101992.25
2023-02-14T23:36:46.888Z,101970.31
2023-02-14T23:39:13.473Z,101966.78
2023-02-14T23:41:52.067Z,101905.25
2023-02-14T23:44:23.845Z,102002.56
2023-02-14T23:46:52.788Z,101847.13
2023-02-14T23:49:20.000Z,101954.09
2023-02-14T23:51:47.976Z,101891.81
2023-02-14T23:54:15.011Z,102001.50
2023-02-14T23:56:42.091Z,101905.84
2023-02-14T23:59:09.662Z,101943.72
